Walesville, New York
Current Conditions -  °F | °C
As of 6:53 AM on Friday 31 Oct 2014 (Local Time) from KRME Reporting Station
Few Clouds Few Clouds  
Wind Chill: -3°   Ceiling: Unl
Heat Index:   Visibility: 10mi
Dew Point: -1°   Wind: 5mph
Humidity: 96%   Direction: 130°SE
Pressure: 30.05"   Gusts: NA
Location:  43.1203°N, 75.3249°W
Report Text: KRME 311053Z AUTO 13004KT 10SM FEW015 00/M01 A3005 RMK AO2 SLP177 I1000 T00001006
Loading
Personal Weather Stations






























Interactive Weather Map
Tropical Storm Tracking
New forecast layout! Learn more

10-Day Weather Forecast

Advertisements
Track Severe Weather on mobile